Time;durP1;ratioP1;P1;durP2;ratioP2;P2;SDS_P1;SDS_P2;PMS_P1;PMS_P2;Temp;Humidity;BMP_temperature;BMP_pressure;BME280_temperature;BME280_humidity;BME280_pressure;Samples;Min_cycle;Max_cycle;Signal;HPM_P1;HPM_P2
2024/01/19 00:00:47;;;;;;;25.60;12.40;;;-1.80;99.90;;;;;;2621341;46;20034;31
2024/01/19 00:03:25;;;;;;;31.30;12.40;;;-1.80;99.90;;;;;;2602808;54;20049;31
2024/01/19 00:05:59;;;;;;;23.75;10.68;;;-1.80;99.90;;;;;;2603019;54;20889;31
2024/01/19 00:08:34;;;;;;;30.45;11.80;;;-1.80;99.90;;;;;;2602914;54;20026;31
2024/01/19 00:11:14;;;;;;;21.55;10.77;;;-1.80;99.90;;;;;;2602784;54;20735;31
2024/01/19 00:13:49;;;;;;;29.15;11.30;;;-1.80;99.90;;;;;;2621055;46;20027;31
2024/01/19 00:16:26;;;;;;;25.08;10.60;;;-1.80;99.90;;;;;;2602659;54;20109;31
2024/01/19 00:19:02;;;;;;;;;;;-1.70;99.90;;;;;;2603045;54;20037;31
2024/01/19 00:21:43;;;;;;;19.65;9.50;;;-1.80;99.90;;;;;;2602949;54;19935;31
2024/01/19 00:24:19;;;;;;;25.13;9.93;;;-1.80;99.90;;;;;;2602629;54;20895;31
2024/01/19 00:26:54;;;;;;;23.13;9.83;;;-1.80;99.90;;;;;;2602728;54;20053;31
2024/01/19 00:29:29;;;;;;;23.80;10.95;;;-1.80;99.90;;;;;;2602786;54;20031;31
2024/01/19 00:32:03;;;;;;;26.13;11.35;;;-1.70;99.90;;;;;;2621377;46;20918;31
2024/01/19 00:34:41;;;;;;;22.33;10.70;;;-1.70;99.90;;;;;;2602803;54;20871;31
2024/01/19 00:37:16;;;;;;;22.63;10.32;;;-1.70;99.90;;;;;;2602854;54;20289;31
2024/01/19 00:39:50;;;;;;;28.00;12.13;;;-1.70;99.90;;;;;;2602846;54;20914;31
2024/01/19 00:42:25;;;;;;;20.65;9.95;;;-1.70;99.90;;;;;;2621440;47;20247;31
2024/01/19 00:45:00;;;;;;;23.05;9.60;;;-1.70;99.90;;;;;;2603606;54;20030;31
2024/01/19 00:47:36;;;;;;;23.13;10.50;;;-1.70;99.90;;;;;;2622327;46;20026;31
2024/01/19 00:50:15;;;;;;;23.25;10.10;;;-1.70;99.90;;;;;;2603630;54;21180;31
2024/01/19 00:52:49;;;;;;;26.27;10.20;;;-1.70;99.90;;;;;;2603647;54;20779;31
2024/01/19 00:55:24;;;;;;;23.23;9.90;;;-1.70;99.90;;;;;;2603376;54;20081;31
2024/01/19 00:57:59;;;;;;;23.45;10.20;;;-1.70;99.90;;;;;;2622070;46;20034;31
2024/01/19 01:00:34;;;;;;;23.80;9.90;;;-1.70;99.90;;;;;;2603611;54;20026;31
2024/01/19 01:03:10;;;;;;;25.40;10.90;;;-1.60;99.90;;;;;;2603537;54;20115;31
2024/01/19 01:05:48;;;;;;;21.50;10.20;;;-1.60;99.90;;;;;;2603422;54;20090;31
2024/01/19 01:08:22;;;;;;;26.20;10.02;;;-1.60;99.90;;;;;;2603388;54;20966;31
2024/01/19 01:10:57;;;;;;;26.95;10.20;;;-1.60;99.90;;;;;;2603200;54;20052;31
2024/01/19 01:13:32;;;;;;;24.73;9.50;;;-1.60;99.90;;;;;;2603318;54;20132;31
2024/01/19 01:16:08;;;;;;;23.33;10.40;;;-1.60;99.90;;;;;;2603395;54;20023;31
2024/01/19 01:18:43;;;;;;;27.85;11.23;;;-1.60;99.90;;;;;;2603531;54;20831;31
2024/01/19 01:21:20;;;;;;;23.85;9.73;;;-1.60;99.90;;;;;;2603298;54;20031;31
2024/01/19 01:23:54;;;;;;;24.30;10.37;;;-1.60;99.90;;;;;;2603521;54;20026;31
2024/01/19 01:26:29;;;;;;;23.13;10.50;;;-1.60;99.90;;;;;;2621884;46;20027;31
2024/01/19 01:29:04;;;;;;;21.95;9.35;;;-1.60;99.90;;;;;;2621849;46;20030;31
2024/01/19 01:31:39;;;;;;;21.10;10.95;;;-1.60;99.90;;;;;;2621602;46;20580;31
2024/01/19 01:34:16;;;;;;;21.85;9.63;;;-1.60;99.90;;;;;;2603393;54;20773;31
2024/01/19 01:36:54;;;;;;;27.27;10.77;;;-1.70;99.90;;;;;;2603379;54;20820;31
2024/01/19 01:39:26;;;;;;;26.60;11.30;;;-1.60;99.90;;;;;;2720261;39;22349;31
2024/01/19 01:42:01;;;;;;;26.73;12.30;;;-1.70;99.90;;;;;;2603256;54;20057;31
2024/01/19 01:44:36;;;;;;;26.20;10.40;;;-1.70;99.90;;;;;;2603322;54;20030;31
2024/01/19 01:47:11;;;;;;;20.67;10.30;;;-1.80;99.90;;;;;;2603367;54;20074;31
2024/01/19 01:49:46;;;;;;;25.00;10.70;;;-1.80;99.90;;;;;;2603231;54;20949;31
2024/01/19 01:52:24;;;;;;;25.13;11.45;;;-1.90;99.90;;;;;;2603048;54;20030;31
2024/01/19 01:57:32;;;;;;;22.40;9.60;;;-2.00;99.90;;;;;;2603213;54;20923;31
2024/01/19 02:00:09;;;;;;;21.23;9.67;;;-2.00;99.90;;;;;;2621987;46;20235;31
2024/01/19 02:02:43;;;;;;;;;;;-2.10;99.90;;;;;;2603429;54;21234;31
2024/01/19 02:05:17;;;;;;;19.00;7.85;;;-2.20;99.90;;;;;;2603302;54;19989;31
2024/01/19 02:07:55;;;;;;;14.85;7.00;;;-2.30;99.90;;;;;;2603337;54;20061;31
2024/01/19 02:10:29;;;;;;;19.05;7.80;;;-2.30;99.90;;;;;;2773122;31;21651;31
2024/01/19 02:13:04;;;;;;;15.75;7.75;;;-2.40;99.90;;;;;;2603141;54;20862;31
2024/01/19 02:15:40;;;;;;;17.25;7.30;;;-2.40;99.90;;;;;;2603319;54;20027;31
2024/01/19 02:18:14;;;;;;;11.83;6.57;;;-2.50;99.90;;;;;;2603229;54;20903;31
2024/01/19 02:20:49;;;;;;;13.75;6.63;;;-2.60;99.90;;;;;;2603329;54;20283;31
2024/01/19 02:23:29;;;;;;;13.60;6.55;;;-2.60;99.90;;;;;;2603326;54;20030;31
2024/01/19 02:26:06;;;;;;;13.55;6.30;;;-2.70;99.90;;;;;;2603303;54;20030;31
2024/01/19 02:28:41;;;;;;;13.02;5.82;;;-2.70;99.90;;;;;;2603264;54;20064;31
2024/01/19 02:31:16;;;;;;;12.30;5.95;;;-2.80;99.90;;;;;;2603091;54;20026;31
2024/01/19 02:33:51;;;;;;;16.05;5.95;;;-2.80;99.90;;;;;;2603261;54;20026;31
2024/01/19 02:36:26;;;;;;;14.10;5.75;;;-2.80;99.90;;;;;;2603298;54;20031;31
2024/01/19 02:39:01;;;;;;;11.63;5.03;;;-2.90;99.90;;;;;;2621576;46;20970;31
2024/01/19 02:41:42;;;;;;;14.77;5.10;;;-2.90;99.90;;;;;;2603178;54;20033;31
2024/01/19 02:44:17;;;;;;;12.88;5.03;;;-3.00;99.90;;;;;;2603107;54;20993;31
2024/01/19 02:46:51;;;;;;;11.85;5.10;;;-3.00;99.90;;;;;;2603082;54;20081;31
2024/01/19 02:49:26;;;;;;;10.90;5.05;;;-3.00;99.90;;;;;;2602868;54;20072;31
2024/01/19 02:52:01;;;;;;;12.60;5.20;;;-3.10;99.90;;;;;;2603243;54;20117;31
2024/01/19 02:54:36;;;;;;;11.82;5.30;;;-3.10;99.90;;;;;;2602872;54;20735;31
2024/01/19 02:57:14;;;;;;;9.55;5.03;;;-3.10;99.90;;;;;;2603060;54;20867;31
2024/01/19 02:59:48;;;;;;;15.25;6.20;;;-3.10;99.90;;;;;;2602990;54;20033;31
2024/01/19 03:02:23;;;;;;;12.88;5.78;;;-3.10;99.90;;;;;;2602932;54;20768;31
2024/01/19 03:04:58;;;;;;;13.00;5.65;;;-3.10;99.90;;;;;;2621418;46;20077;31
2024/01/19 03:07:33;;;;;;;11.10;6.00;;;-3.20;99.90;;;;;;2602882;54;20029;31
2024/01/19 03:10:10;;;;;;;12.77;5.70;;;-3.20;99.90;;;;;;2603149;54;20037;31
2024/01/19 03:12:47;;;;;;;12.80;6.23;;;-3.20;99.90;;;;;;2701607;39;21616;31
2024/01/19 03:15:22;;;;;;;10.68;5.80;;;-3.20;99.90;;;;;;2602876;54;21097;31
2024/01/19 03:17:57;;;;;;;12.10;5.95;;;-3.20;99.90;;;;;;2602861;54;20900;31
2024/01/19 03:20:30;;;;;;;10.80;5.25;;;-3.30;99.90;;;;;;2701487;39;22286;31
2024/01/19 03:23:07;;;;;;;14.25;5.60;;;-3.30;99.90;;;;;;2602932;54;20279;31
2024/01/19 03:25:41;;;;;;;11.15;5.55;;;-3.30;99.90;;;;;;2602915;54;20555;31
2024/01/19 03:28:18;;;;;;;13.32;6.00;;;-3.30;99.90;;;;;;2603017;54;20026;31
2024/01/19 03:30:52;;;;;;;11.25;5.35;;;-3.30;99.90;;;;;;2602833;54;20739;31
2024/01/19 03:33:27;;;;;;;10.98;5.57;;;-3.40;99.90;;;;;;2602973;54;20049;31
2024/01/19 03:36:02;;;;;;;16.20;6.10;;;-3.40;99.90;;;;;;2602822;54;20744;31
2024/01/19 03:38:37;;;;;;;11.05;5.47;;;-3.40;99.90;;;;;;2602889;54;20027;31
2024/01/19 03:41:12;;;;;;;13.45;5.80;;;-3.40;99.90;;;;;;2602724;54;20030;31
2024/01/19 03:43:50;;;;;;;15.65;7.18;;;-3.40;99.90;;;;;;2602923;54;20030;31
2024/01/19 03:46:24;;;;;;;10.70;5.45;;;-3.40;99.90;;;;;;2602828;54;20034;31
2024/01/19 03:48:58;;;;;;;9.85;5.43;;;-3.40;99.90;;;;;;2602997;54;20030;31
2024/01/19 03:51:32;;;;;;;10.17;4.73;;;-3.40;99.90;;;;;;2602974;54;20026;31
2024/01/19 03:54:07;;;;;;;12.03;5.20;;;-3.40;99.90;;;;;;2602846;54;20859;31
2024/01/19 03:56:43;;;;;;;14.50;5.67;;;-3.50;99.90;;;;;;2602905;54;20249;31
2024/01/19 03:59:20;;;;;;;12.20;6.15;;;-3.50;99.90;;;;;;2602777;54;20895;31
2024/01/19 04:01:54;;;;;;;17.58;6.57;;;-3.60;99.90;;;;;;2602730;54;20037;31
2024/01/19 04:04:28;;;;;;;12.75;5.40;;;-3.60;99.90;;;;;;2602765;54;20038;31
2024/01/19 04:07:03;;;;;;;15.60;6.70;;;-3.60;99.90;;;;;;2602715;54;20030;31
2024/01/19 04:09:38;;;;;;;12.50;6.22;;;-3.70;99.90;;;;;;2602750;54;20843;31
2024/01/19 04:12:15;;;;;;;12.70;5.72;;;-3.70;99.90;;;;;;2602648;54;20031;31
2024/01/19 04:14:53;;;;;;;11.23;6.40;;;-3.70;99.90;;;;;;2602822;54;20796;31
2024/01/19 04:17:27;;;;;;;14.95;5.97;;;-3.70;99.90;;;;;;2602582;54;21095;31
2024/01/19 04:20:04;;;;;;;10.98;5.90;;;-3.70;99.90;;;;;;2602780;54;20742;31
2024/01/19 04:22:40;;;;;;;15.88;6.40;;;-3.70;99.90;;;;;;2764009;31;20609;31
2024/01/19 04:25:15;;;;;;;;;;;-3.80;99.90;;;;;;2603178;54;20900;31
2024/01/19 04:27:48;;;;;;;13.10;6.10;;;-3.80;99.90;;;;;;2621231;46;20741;31
2024/01/19 04:30:26;;;;;;;13.77;5.93;;;-3.80;99.90;;;;;;2602710;54;20749;31
2024/01/19 04:32:59;;;;;;;13.77;5.70;;;-3.80;99.90;;;;;;2602854;54;20723;31
2024/01/19 04:35:34;;;;;;;16.90;5.93;;;-3.80;99.90;;;;;;2602755;54;21185;31
2024/01/19 04:38:09;;;;;;;15.80;6.72;;;-3.80;99.90;;;;;;2621153;47;20859;31
2024/01/19 04:40:46;;;;;;;14.20;7.00;;;-3.90;99.90;;;;;;2602796;54;20023;31
2024/01/19 04:43:21;;;;;;;17.40;7.27;;;-3.90;99.90;;;;;;2602591;54;20124;31
2024/01/19 04:45:59;;;;;;;17.52;7.00;;;-4.00;99.90;;;;;;2602633;54;21156;31
2024/01/19 04:48:33;;;;;;;18.33;6.88;;;-3.90;99.90;;;;;;2602578;54;20932;31
2024/01/19 04:51:08;;;;;;;14.15;6.35;;;-4.10;99.90;;;;;;2602497;54;20915;31
2024/01/19 04:53:43;;;;;;;13.93;6.88;;;-4.10;99.90;;;;;;2602557;54;20753;31
2024/01/19 04:56:18;;;;;;;18.23;7.53;;;-4.10;99.90;;;;;;2620884;47;20756;31
2024/01/19 04:58:53;;;;;;;16.38;6.65;;;-4.10;99.90;;;;;;2602723;54;20770;31
2024/01/19 05:01:31;;;;;;;17.35;8.05;;;-4.20;99.90;;;;;;2602639;54;20042;31
2024/01/19 05:04:05;;;;;;;17.40;8.40;;;-4.20;99.90;;;;;;2602703;54;20872;31
2024/01/19 05:06:42;;;;;;;17.05;7.28;;;-4.30;99.90;;;;;;2602551;54;20234;31
2024/01/19 05:09:16;;;;;;;;;;;-4.30;99.90;;;;;;2602985;54;20085;31
2024/01/19 05:11:50;;;;;;;18.77;8.07;;;-4.30;99.90;;;;;;2602526;54;19934;31
2024/01/19 05:14:25;;;;;;;17.17;8.50;;;-4.30;99.90;;;;;;2602561;54;20101;31
2024/01/19 05:17:03;;;;;;;18.63;8.13;;;-4.40;99.90;;;;;;2602576;54;20030;31
2024/01/19 05:19:37;;;;;;;18.33;8.00;;;-4.40;99.90;;;;;;2602469;54;20026;31
2024/01/19 05:22:11;;;;;;;17.30;8.35;;;-4.40;99.90;;;;;;2602484;54;20034;31
2024/01/19 05:24:47;;;;;;;18.38;7.72;;;-4.40;99.90;;;;;;2602512;54;20026;31
2024/01/19 05:27:21;;;;;;;18.77;8.98;;;-4.40;99.90;;;;;;2602569;54;20908;31
2024/01/19 05:29:56;;;;;;;21.13;9.65;;;-4.50;99.90;;;;;;2603284;54;20028;31
2024/01/19 05:32:32;;;;;;;15.97;8.03;;;-4.50;99.90;;;;;;2702050;39;22371;31
2024/01/19 05:35:08;;;;;;;23.30;8.48;;;-4.50;99.90;;;;;;2603250;54;20045;31
2024/01/19 05:37:43;;;;;;;;;;;-4.60;99.90;;;;;;2603434;54;20854;31
2024/01/19 05:40:17;;;;;;;21.05;8.45;;;-4.60;99.90;;;;;;2603249;54;19942;31
2024/01/19 05:42:53;;;;;;;24.00;9.55;;;-4.60;99.90;;;;;;2621537;46;20107;31
2024/01/19 05:45:28;;;;;;;20.45;9.43;;;-4.60;99.90;;;;;;2603117;54;20038;31
2024/01/19 05:48:06;;;;;;;25.33;9.50;;;-4.60;99.90;;;;;;2603386;54;20023;31
2024/01/19 05:50:41;;;;;;;26.05;9.95;;;-4.70;99.90;;;;;;2603362;54;20034;31
2024/01/19 05:53:16;;;;;;;22.83;10.23;;;-4.70;99.90;;;;;;2603193;54;20889;31
2024/01/19 05:55:51;;;;;;;22.93;9.70;;;-4.70;99.90;;;;;;2603316;54;20870;31
2024/01/19 05:58:25;;;;;;;20.43;9.33;;;-4.70;99.90;;;;;;2603169;54;20887;31
2024/01/19 06:01:02;;;;;;;22.48;8.93;;;-4.70;99.90;;;;;;2603146;54;21840;31
2024/01/19 06:03:40;;;;;;;24.27;10.00;;;-4.70;99.90;;;;;;2603310;54;20896;31
2024/01/19 06:06:14;;;;;;;24.85;10.18;;;-4.60;99.90;;;;;;2603104;54;20068;31
2024/01/19 06:08:49;;;;;;;21.00;9.48;;;-4.70;99.90;;;;;;2720063;39;21452;31
2024/01/19 06:11:24;;;;;;;21.80;9.60;;;-4.70;99.90;;;;;;2621782;46;20033;31
2024/01/19 06:13:59;;;;;;;21.10;9.93;;;-4.70;99.90;;;;;;2603122;54;20052;31
2024/01/19 06:16:34;;;;;;;21.48;10.70;;;-4.80;99.90;;;;;;2603204;54;20027;31
2024/01/19 06:19:12;;;;;;;20.37;11.10;;;-4.80;99.90;;;;;;2621592;46;20026;31
2024/01/19 06:21:47;;;;;;;29.10;10.73;;;-4.80;99.90;;;;;;2603063;54;20101;31
2024/01/19 06:24:22;;;;;;;17.65;9.20;;;-4.80;99.90;;;;;;2603249;54;20722;31
2024/01/19 06:26:54;;;;;;;20.98;9.48;;;-4.80;99.90;;;;;;2621437;46;21332;31
2024/01/19 06:29:29;;;;;;;21.75;9.35;;;-4.90;99.90;;;;;;2621460;46;20037;31
2024/01/19 06:32:04;;;;;;;19.73;8.77;;;-4.90;99.90;;;;;;2602882;54;20104;31
2024/01/19 06:34:42;;;;;;;20.20;9.90;;;-4.90;99.90;;;;;;2621473;46;20104;31
2024/01/19 06:37:16;;;;;;;23.65;9.88;;;-4.90;99.90;;;;;;2603019;54;20105;31
2024/01/19 06:39:51;;;;;;;24.40;9.55;;;-4.90;99.90;;;;;;2603077;54;20087;31
2024/01/19 06:42:26;;;;;;;23.30;9.10;;;-5.00;99.90;;;;;;2603052;54;20842;31
2024/01/19 06:45:01;;;;;;;24.15;9.75;;;-5.00;99.90;;;;;;2603029;54;20131;31
2024/01/19 06:47:36;;;;;;;21.23;8.23;;;-5.00;99.90;;;;;;2621312;46;20890;31
2024/01/19 06:50:14;;;;;;;19.67;9.15;;;-5.00;99.90;;;;;;2603080;54;20124;31
2024/01/19 06:52:48;;;;;;;18.50;8.60;;;-5.00;99.90;;;;;;2602998;54;21740;31
2024/01/19 06:55:24;;;;;;;20.38;8.70;;;-5.00;99.90;;;;;;2602908;54;20815;31
2024/01/19 06:57:59;;;;;;;21.80;9.02;;;-5.00;99.90;;;;;;2602908;54;21744;31
2024/01/19 07:00:34;;;;;;;22.95;9.85;;;-5.00;99.90;;;;;;2603155;54;20908;31
2024/01/19 07:03:09;;;;;;;23.02;9.70;;;-5.10;99.90;;;;;;2621545;46;20054;31
2024/01/19 07:05:47;;;;;;;25.17;10.18;;;-5.00;99.90;;;;;;2621352;46;20753;31
2024/01/19 07:08:22;;;;;;;22.60;9.68;;;-5.00;99.90;;;;;;2603043;54;20038;31
2024/01/19 07:10:57;;;;;;;26.30;11.10;;;-5.00;99.90;;;;;;2603059;54;20096;31
2024/01/19 07:13:32;;;;;;;34.00;13.20;;;-5.00;99.90;;;;;;2603118;54;20035;31
2024/01/19 07:16:09;;;;;;;40.67;13.43;;;-5.00;99.90;;;;;;2603078;54;20026;31
2024/01/19 07:18:43;;;;;;;;;;;-5.00;99.90;;;;;;2621390;46;20868;31
2024/01/19 07:21:20;;;;;;;37.70;13.27;;;-5.00;99.90;;;;;;2621575;46;19934;31
2024/01/19 07:23:52;;;;;;;36.63;14.18;;;-5.00;99.90;;;;;;2602998;54;22476;31
2024/01/19 07:26:27;;;;;;;30.63;13.70;;;-5.00;99.90;;;;;;2603035;54;20027;31
2024/01/19 07:29:06;;;;;;;32.08;12.70;;;-5.00;99.90;;;;;;2603035;54;20030;31
2024/01/19 07:31:41;;;;;;;35.33;12.98;;;-5.00;99.90;;;;;;2621253;46;20030;31
2024/01/19 07:34:15;;;;;;;35.10;14.60;;;-5.00;99.90;;;;;;2602883;54;20930;31
2024/01/19 07:36:53;;;;;;;33.80;13.75;;;-5.00;99.90;;;;;;2602854;54;20322;31
2024/01/19 07:39:29;;;;;;;33.27;12.17;;;-5.00;99.90;;;;;;2602711;54;20037;31
2024/01/19 07:42:04;;;;;;;34.70;13.40;;;-5.00;99.90;;;;;;2602800;54;20030;31
2024/01/19 07:44:39;;;;;;;34.28;14.77;;;-4.90;99.90;;;;;;2603057;54;21174;31
2024/01/19 07:47:13;;;;;;;30.38;14.63;;;-4.90;99.90;;;;;;2621556;46;20057;31
2024/01/19 07:49:49;;;;;;;36.17;15.15;;;-4.90;99.90;;;;;;2621179;46;20042;31
2024/01/19 07:52:26;;;;;;;40.90;15.23;;;-4.80;99.90;;;;;;2620918;46;20754;31
2024/01/19 07:55:00;;;;;;;32.70;14.25;;;-4.80;99.90;;;;;;2603070;54;20053;31
2024/01/19 07:57:35;;;;;;;35.27;15.33;;;-4.70;99.90;;;;;;2602584;54;20865;31
2024/01/19 08:00:10;;;;;;;34.60;13.25;;;-4.60;99.90;;;;;;2621118;46;22551;31
2024/01/19 08:02:44;;;;;;;26.57;13.07;;;-4.50;99.90;;;;;;2621627;46;20819;31
2024/01/19 08:05:15;;;;;;;26.35;12.25;;;-4.50;99.90;;;;;;2621104;46;21215;31
2024/01/19 08:07:52;;;;;;;34.05;13.00;;;-4.40;99.90;;;;;;2621367;46;22403;31
2024/01/19 08:10:26;;;;;;;31.30;12.80;;;-4.40;99.90;;;;;;2602906;54;20990;31
2024/01/19 08:13:01;;;;;;;23.50;11.30;;;-4.30;99.90;;;;;;2621001;46;20572;31
2024/01/19 08:15:34;;;;;;;25.15;11.23;;;-4.20;99.90;;;;;;2621131;46;22345;31
2024/01/19 08:18:09;;;;;;;27.83;12.15;;;-4.20;99.90;;;;;;2602804;54;20847;31
2024/01/19 08:20:44;;;;;;;26.60;11.55;;;-4.10;99.90;;;;;;2602809;54;20910;31
2024/01/19 08:23:22;;;;;;;28.13;11.50;;;-4.00;99.90;;;;;;2602937;54;20854;31
2024/01/19 08:25:56;;;;;;;27.45;12.77;;;-3.90;99.90;;;;;;2602826;54;20093;31
2024/01/19 08:28:34;;;;;;;32.73;12.07;;;-3.90;99.90;;;;;;2602922;54;20031;31
2024/01/19 08:31:14;;;;;;;32.55;13.88;;;-3.90;99.90;;;;;;2602655;54;20864;31
2024/01/19 08:33:48;;;;;;;27.35;12.95;;;-3.80;99.90;;;;;;2602786;54;20886;31
2024/01/19 08:36:24;;;;;;;31.70;13.15;;;-3.70;99.90;;;;;;2602647;54;20026;31
2024/01/19 08:39:01;;;;;;;27.60;11.75;;;-3.70;99.90;;;;;;2620948;47;20770;31
2024/01/19 08:41:42;;;;;;;23.35;12.10;;;-3.60;99.90;;;;;;2602798;54;20089;31
2024/01/19 08:44:15;;;;;;;28.90;12.40;;;-3.60;99.90;;;;;;2602729;54;20050;31
2024/01/19 08:46:53;;;;;;;23.98;11.95;;;-3.50;99.90;;;;;;2602590;54;20034;31
2024/01/19 08:49:28;;;;;;;30.45;11.73;;;-3.50;99.90;;;;;;2602314;54;20850;31
2024/01/19 08:52:02;;;;;;;;;;;-3.50;99.90;;;;;;2602767;54;20077;31
2024/01/19 08:54:43;;;;;;;33.30;11.57;;;-3.50;99.90;;;;;;2602569;54;20507;31
2024/01/19 08:57:15;;;;;;;31.00;13.33;;;-3.50;99.90;;;;;;2602667;54;21111;31
2024/01/19 08:59:50;;;;;;;35.92;15.02;;;-3.50;99.90;;;;;;2602546;54;20243;31
2024/01/19 09:02:25;;;;;;;32.08;12.93;;;-3.50;99.90;;;;;;2602660;54;20054;31
2024/01/19 09:05:00;;;;;;;29.73;13.02;;;-3.60;99.90;;;;;;2617510;46;21151;31
2024/01/19 09:07:35;;;;;;;30.00;14.00;;;-3.60;99.90;;;;;;2603411;54;19996;31
2024/01/19 09:10:13;;;;;;;35.72;15.32;;;-3.60;99.90;;;;;;2603408;54;20027;31
2024/01/19 09:12:47;;;;;;;36.58;15.38;;;-3.70;99.90;;;;;;2621918;46;20042;31
2024/01/19 09:15:22;;;;;;;34.25;14.23;;;-3.70;99.90;;;;;;2621490;46;20792;31
2024/01/19 09:17:57;;;;;;;32.92;14.95;;;-3.70;99.90;;;;;;2701966;39;21542;31
2024/01/19 09:20:33;;;;;;;36.80;15.70;;;-3.70;99.90;;;;;;2603377;54;20030;31
2024/01/19 09:23:07;;;;;;;31.25;15.35;;;-3.70;99.90;;;;;;2603309;54;20030;31
2024/01/19 09:25:45;;;;;;;33.92;15.48;;;-3.70;99.90;;;;;;2603425;54;20910;31
2024/01/19 09:28:19;;;;;;;36.58;15.80;;;-3.70;99.90;;;;;;2603286;54;20109;31
2024/01/19 09:30:54;;;;;;;32.17;14.37;;;-3.60;99.90;;;;;;2621407;46;20749;31
2024/01/19 09:33:29;;;;;;;30.45;15.07;;;-3.60;99.90;;;;;;2603245;54;20064;31
2024/01/19 09:36:04;;;;;;;33.40;15.57;;;-3.60;99.90;;;;;;2603432;54;20030;31
2024/01/19 09:38:39;;;;;;;35.00;15.60;;;-3.60;99.90;;;;;;2603231;54;20354;31
2024/01/19 09:41:23;;;;;;;37.55;15.27;;;-3.60;99.90;;;;;;2603063;54;20033;31
2024/01/19 09:43:58;;;;;;;35.25;14.38;;;-3.50;99.90;;;;;;2603207;54;20808;31
2024/01/19 09:46:32;;;;;;;33.17;16.02;;;-3.50;99.90;;;;;;2603152;54;20022;31
2024/01/19 09:49:11;;;;;;;33.20;15.50;;;-3.30;99.90;;;;;;2603416;54;20043;31
2024/01/19 09:51:54;;;;;;;31.48;14.40;;;-3.10;99.90;;;;;;2602959;54;20860;31
2024/01/19 09:54:30;;;;;;;35.75;15.05;;;-2.80;99.90;;;;;;2603410;54;22373;31
2024/01/19 09:57:08;;;;;;;34.47;13.43;;;-2.40;99.90;;;;;;2603289;54;20038;31
2024/01/19 09:59:43;;;;;;;32.20;12.75;;;-2.20;99.90;;;;;;2621746;46;20027;31
2024/01/19 10:02:17;;;;;;;29.00;12.25;;;-1.80;99.90;;;;;;2603110;54;20061;31
2024/01/19 10:04:54;;;;;;;24.60;10.67;;;-1.40;99.90;;;;;;2603203;54;20034;31
2024/01/19 10:07:28;;;;;;;;;;;-1.00;99.90;;;;;;2621684;46;20052;31
2024/01/19 10:10:02;;;;;;;18.03;9.67;;;-0.70;99.90;;;;;;2621699;46;19934;31
2024/01/19 10:12:40;;;;;;;24.35;9.18;;;-0.30;99.90;;;;;;2621883;46;20093;31
2024/01/19 10:15:16;;;;;;;21.65;9.10;;;-0.10;99.90;;;;;;2603181;54;20874;31
2024/01/19 10:17:49;;;;;;;19.85;7.97;;;0.10;99.90;;;;;;2701941;39;21252;31
2024/01/19 10:20:24;;;;;;;22.42;9.13;;;0.20;99.90;;;;;;2603107;54;20952;31
2024/01/19 10:23:01;;;;;;;19.10;8.50;;;0.40;99.90;;;;;;2603302;54;20567;31
2024/01/19 10:25:37;;;;;;;21.80;7.95;;;0.50;99.90;;;;;;2603073;54;20026;31
2024/01/19 10:28:14;;;;;;;18.00;7.50;;;0.70;99.90;;;;;;2621602;46;20031;31
2024/01/19 10:30:46;;;;;;;18.17;7.83;;;0.80;99.90;;;;;;2621777;46;22349;31
2024/01/19 10:33:21;;;;;;;19.40;7.50;;;0.90;99.90;;;;;;2603136;54;20079;31
2024/01/19 10:35:58;;;;;;;13.95;7.07;;;1.10;99.90;;;;;;2603214;54;20861;31
2024/01/19 10:38:33;;;;;;;19.60;7.80;;;1.20;99.90;;;;;;2603442;54;20030;31
2024/01/19 10:41:11;;;;;;;15.07;6.68;;;1.30;99.90;;;;;;2603073;54;20031;31
2024/01/19 10:43:49;;;;;;;13.73;7.20;;;1.40;99.90;;;;;;2603150;54;20884;31
2024/01/19 10:46:26;;;;;;;20.63;9.13;;;1.40;99.90;;;;;;2603157;54;20247;31
2024/01/19 10:49:06;;;;;;;21.33;8.05;;;1.50;99.90;;;;;;2603038;54;20026;31
2024/01/19 10:51:42;;;;;;;21.50;7.50;;;1.60;99.90;;;;;;2621528;46;20872;31
2024/01/19 10:54:23;;;;;;;;;;;1.70;99.90;;;;;;2603156;54;20032;31
2024/01/19 10:57:06;;;;;;;25.13;7.60;;;1.70;99.90;;;;;;2603132;54;19935;31
2024/01/19 10:59:43;;;;;;;13.95;5.57;;;1.70;99.90;;;;;;2621655;46;20824;31
2024/01/19 11:02:17;;;;;;;15.70;6.80;;;1.60;99.90;;;;;;2621053;46;20026;31
2024/01/19 11:04:53;;;;;;;26.85;6.10;;;1.60;99.90;;;;;;2621588;46;20022;31
2024/01/19 11:07:27;;;;;;;19.73;6.80;;;1.60;99.90;;;;;;2603208;54;20808;31
2024/01/19 11:10:02;;;;;;;16.80;5.80;;;1.70;99.90;;;;;;2603001;54;20842;31
2024/01/19 11:12:39;;;;;;;13.07;5.87;;;1.60;99.90;;;;;;2602992;54;20906;31
2024/01/19 11:15:19;;;;;;;14.27;5.85;;;1.60;99.90;;;;;;2602933;54;20332;31
2024/01/19 11:17:55;;;;;;;16.93;7.37;;;1.60;99.90;;;;;;2621276;46;20888;31
2024/01/19 11:20:31;;;;;;;14.90;5.85;;;1.50;99.90;;;;;;2602814;54;20329;31
2024/01/19 11:23:06;;;;;;;21.95;6.63;;;1.50;99.90;;;;;;2603216;54;20121;31
2024/01/19 11:25:38;;;;;;;19.75;5.85;;;1.40;99.90;;;;;;2602625;54;20026;31
2024/01/19 11:28:18;;;;;;;18.17;5.55;;;1.40;99.90;;;;;;2603041;54;20092;31
2024/01/19 11:31:05;;;;;;;15.70;6.30;;;1.30;99.90;;;;;;2621424;46;20031;31
2024/01/19 11:33:40;;;;;;;14.80;5.60;;;1.30;99.90;;;;;;2621185;46;20128;31
2024/01/19 11:36:15;;;;;;;17.40;5.88;;;1.20;99.90;;;;;;2602874;54;20764;31
2024/01/19 11:38:50;;;;;;;15.80;6.40;;;1.20;99.90;;;;;;2621273;46;21271;31
2024/01/19 11:41:48;;;;;;;15.68;5.30;;;1.10;99.90;;;;;;2621421;46;20031;31
2024/01/19 11:46:57;;;;;;;16.05;6.10;;;1.10;99.90;;;;;;2603066;54;20089;31
2024/01/19 11:49:49;;;;;;;13.30;5.20;;;1.10;99.90;;;;;;2602880;54;20900;31
2024/01/19 11:52:39;;;;;;;9.40;4.13;;;1.10;99.90;;;;;;2603052;54;21114;31
2024/01/19 11:55:41;;;;;;;12.27;4.20;;;1.10;99.90;;;;;;2602838;54;20886;31
2024/01/19 11:58:35;;;;;;;10.07;3.45;;;1.00;99.90;;;;;;2602983;54;21107;31
2024/01/19 12:01:08;;;;;;;13.30;3.10;;;1.00;99.90;;;;;;2603150;54;22506;31
2024/01/19 12:03:46;;;;;;;12.07;2.80;;;1.00;99.90;;;;;;2602727;54;20768;31
2024/01/19 12:06:22;;;;;;;8.50;2.67;;;1.00;99.90;;;;;;2602792;54;20049;31
2024/01/19 12:09:06;;;;;;;9.15;2.70;;;1.00;99.90;;;;;;2602991;54;20026;31
2024/01/19 12:11:41;;;;;;;13.85;3.60;;;0.90;99.90;;;;;;2602925;54;20731;31
2024/01/19 12:14:19;;;;;;;7.72;3.15;;;0.90;99.90;;;;;;2603011;54;20027;31
2024/01/19 12:16:53;;;;;;;4.05;2.00;;;0.90;99.90;;;;;;2602496;54;20112;31
2024/01/19 12:19:31;;;;;;;7.68;2.88;;;0.80;99.90;;;;;;2621275;46;20026;31
2024/01/19 12:22:06;;;;;;;7.20;2.80;;;0.90;99.90;;;;;;2602475;54;20153;31
2024/01/19 12:24:41;;;;;;;7.25;2.60;;;0.80;99.90;;;;;;2602898;54;20026;31
2024/01/19 12:27:14;;;;;;;4.95;2.30;;;0.80;99.90;;;;;;2701401;39;22298;31
2024/01/19 12:29:48;;;;;;;6.20;2.50;;;0.80;99.90;;;;;;2621129;46;20037;31
2024/01/19 12:32:23;;;;;;;12.88;3.42;;;0.80;99.90;;;;;;2602607;54;20903;31
2024/01/19 12:35:04;;;;;;;9.37;3.53;;;0.80;99.90;;;;;;2621438;46;20022;31
2024/01/19 12:37:39;;;;;;;7.60;3.05;;;0.80;99.90;;;;;;2621976;47;21035;31
2024/01/19 12:40:14;;;;;;;9.40;2.58;;;0.80;99.90;;;;;;2604459;54;20733;31
2024/01/19 12:42:49;;;;;;;6.20;2.90;;;0.80;99.90;;;;;;2623325;46;21542;31
2024/01/19 12:45:25;;;;;;;8.60;2.80;;;0.80;99.90;;;;;;2622847;46;20022;31
2024/01/19 12:48:42;;;;;;;7.50;3.00;;;0.80;99.90;;;;;;2604513;54;20065;31
2024/01/19 12:51:19;;;;;;;8.23;3.08;;;0.80;99.90;;;;;;2604223;54;20750;31
2024/01/19 12:53:56;;;;;;;7.57;2.67;;;0.80;99.90;;;;;;2622788;46;20983;31
2024/01/19 12:56:31;;;;;;;6.43;2.67;;;0.80;99.90;;;;;;2604588;54;20905;31
2024/01/19 12:59:09;;;;;;;6.32;2.97;;;0.80;99.90;;;;;;2604390;54;20265;31
2024/01/19 13:01:45;;;;;;;8.57;3.15;;;0.80;99.90;;;;;;2617323;46;20049;31
2024/01/19 13:04:19;;;;;;;6.55;2.78;;;0.80;99.90;;;;;;2703005;39;21457;31
2024/01/19 13:06:53;;;;;;;9.48;2.55;;;0.80;99.90;;;;;;2604332;54;20038;31
2024/01/19 13:09:31;;;;;;;9.07;3.63;;;0.70;99.90;;;;;;2604535;54;20780;31
2024/01/19 13:12:11;;;;;;;8.30;4.00;;;0.70;99.90;;;;;;2604060;54;20073;31
2024/01/19 13:14:46;;;;;;;10.85;4.45;;;0.60;99.90;;;;;;2604614;54;20054;31
2024/01/19 13:17:26;;;;;;;11.32;5.25;;;0.60;99.90;;;;;;2604238;54;20038;31
2024/01/19 13:20:03;;;;;;;11.55;4.68;;;0.60;99.90;;;;;;2604232;54;20878;31
2024/01/19 13:22:40;;;;;;;13.38;5.20;;;0.60;99.90;;;;;;2604239;54;20927;31
2024/01/19 13:25:17;;;;;;;15.50;4.15;;;0.70;99.90;;;;;;2604288;54;20852;31
2024/01/19 13:27:55;;;;;;;11.73;4.18;;;0.70;99.90;;;;;;2604472;54;20034;31
2024/01/19 13:30:31;;;;;;;11.52;4.07;;;0.70;99.90;;;;;;2622668;46;22421;31
2024/01/19 13:33:06;;;;;;;6.88;3.08;;;0.70;99.90;;;;;;2604419;54;20030;31
2024/01/19 13:35:40;;;;;;;7.50;3.25;;;0.60;99.90;;;;;;2604452;54;20907;31
2024/01/19 13:38:15;;;;;;;8.27;2.53;;;0.60;99.90;;;;;;2604254;54;20026;31
2024/01/19 13:40:56;;;;;;;6.38;3.13;;;0.60;99.90;;;;;;2604217;54;20919;31